Time;durP1;ratioP1;P1;durP2;ratioP2;P2;SDS_P1;SDS_P2;PMS_P1;PMS_P2;Temp;Humidity;BMP_temperature;BMP_pressure;BME280_temperature;BME280_humidity;BME280_pressure;Samples;Min_cycle;Max_cycle;Signal;HPM_P1;HPM_P2
2023/05/04 00:01:03;;;;;;;8.85;6.10;;;8.90;99.90;;;;;;5052142;28;20246;-75
2023/05/04 00:03:29;;;;;;;7.13;6.43;;;8.80;99.90;;;;;;5051647;28;20215;-75
2023/05/04 00:05:54;;;;;;;6.97;6.20;;;8.80;99.90;;;;;;5052860;28;20614;-75
2023/05/04 00:08:20;;;;;;;8.02;6.32;;;8.70;99.90;;;;;;5050582;28;20218;-73
2023/05/04 00:10:46;;;;;;;7.80;6.80;;;8.60;99.90;;;;;;5051336;28;20183;-76
2023/05/04 00:13:11;;;;;;;6.60;5.95;;;8.50;99.90;;;;;;5050277;28;20629;-76
2023/05/04 00:15:37;;;;;;;6.57;6.07;;;8.40;99.90;;;;;;5049480;28;20565;-75
2023/05/04 00:18:03;;;;;;;7.35;6.30;;;8.30;99.90;;;;;;5052310;28;20208;-75
2023/05/04 00:20:28;;;;;;;6.90;6.20;;;8.30;99.90;;;;;;5050050;28;20623;-75
2023/05/04 00:22:54;;;;;;;7.60;6.45;;;8.20;99.90;;;;;;5052745;28;20198;-75
2023/05/04 00:25:20;;;;;;;6.72;5.90;;;8.30;99.90;;;;;;5049598;28;20225;-75
2023/05/04 00:27:45;;;;;;;6.68;5.97;;;8.40;99.90;;;;;;5049957;28;20286;-75
2023/05/04 00:30:11;;;;;;;6.70;6.13;;;8.30;99.90;;;;;;5049576;28;20175;-74
2023/05/04 00:32:36;;;;;;;7.35;6.10;;;8.30;99.90;;;;;;5051327;28;20573;-75
2023/05/04 00:35:02;;;;;;;8.93;6.32;;;8.30;99.90;;;;;;5048075;28;20184;-76
2023/05/04 00:37:28;;;;;;;6.97;6.35;;;8.30;99.90;;;;;;5049807;28;20204;-75
2023/05/04 00:39:53;;;;;;;6.70;5.95;;;8.30;99.90;;;;;;5048732;28;20187;-74
2023/05/04 00:42:19;;;;;;;8.48;6.63;;;8.20;99.90;;;;;;5052214;28;20216;-75
2023/05/04 00:44:44;;;;;;;7.60;6.78;;;8.10;99.90;;;;;;5048312;28;20184;-75
2023/05/04 00:47:11;;;;;;;6.85;6.25;;;8.00;99.90;;;;;;5047441;28;20212;-75
2023/05/04 00:49:37;;;;;;;6.90;6.25;;;7.90;99.90;;;;;;5043349;28;20171;-75
2023/05/04 00:52:04;;;;;;;8.57;6.60;;;7.90;99.90;;;;;;5046436;28;20190;-75
2023/05/04 00:54:30;;;;;;;6.82;6.20;;;8.00;99.90;;;;;;5044410;28;20184;-75
2023/05/04 00:56:56;;;;;;;9.43;6.70;;;8.10;99.90;;;;;;5047472;28;20566;-73
2023/05/04 00:59:21;;;;;;;7.85;6.03;;;8.00;99.90;;;;;;5051888;28;20187;-75
2023/05/04 01:01:47;;;;;;;8.65;6.53;;;8.00;99.90;;;;;;5052799;28;20202;-75
2023/05/04 01:04:13;;;;;;;6.53;5.93;;;8.00;99.90;;;;;;5047709;28;20184;-75
2023/05/04 01:07:08;;;;;;;11.52;6.45;;;8.00;99.90;;;;;;5047688;28;20286;-75
2023/05/04 01:09:47;;;;;;;6.80;6.20;;;8.00;99.90;;;;;;5044580;28;20181;-74
2023/05/04 01:12:36;;;;;;;6.75;6.18;;;8.00;99.90;;;;;;5042867;28;20195;-75
2023/05/04 01:15:03;;;;;;;6.63;5.97;;;7.90;99.90;;;;;;5047756;28;20202;-75
2023/05/04 01:17:28;;;;;;;7.45;6.50;;;7.90;99.90;;;;;;5054009;28;20203;-74
2023/05/04 01:19:54;;;;;;;6.40;5.85;;;7.90;99.90;;;;;;5046123;28;20274;-75
2023/05/04 01:22:20;;;;;;;7.22;6.18;;;7.80;99.90;;;;;;5048376;28;20203;-73
2023/05/04 01:24:46;;;;;;;6.68;5.88;;;7.80;99.90;;;;;;5047401;28;20313;-73
2023/05/04 01:27:22;;;;;;;8.15;6.60;;;7.80;99.90;;;;;;5047144;28;20286;-73
2023/05/04 01:30:04;;;;;;;6.93;6.32;;;7.80;99.90;;;;;;5045155;28;20523;-72
2023/05/04 01:32:31;;;;;;;7.35;6.63;;;7.70;99.90;;;;;;5050423;28;20184;-73
2023/05/04 01:34:57;;;;;;;5.82;5.40;;;7.60;99.90;;;;;;5044089;28;20251;-73
2023/05/04 01:37:23;;;;;;;7.45;6.72;;;7.60;99.90;;;;;;5049074;28;20623;-72
2023/05/04 01:39:48;;;;;;;7.43;6.60;;;7.60;99.90;;;;;;5051854;28;20263;-75
2023/05/04 01:42:14;;;;;;;7.05;6.45;;;7.50;99.90;;;;;;5055955;28;20190;-73
2023/05/04 01:44:40;;;;;;;7.68;6.78;;;7.50;99.90;;;;;;5052057;28;20644;-74
2023/05/04 01:47:06;;;;;;;7.20;6.55;;;7.40;99.90;;;;;;5056418;28;20246;-72
2023/05/04 01:49:31;;;;;;;7.10;6.38;;;7.40;99.90;;;;;;5055196;28;20226;-73
2023/05/04 01:51:57;;;;;;;9.48;6.60;;;7.50;99.90;;;;;;5052159;28;20183;-73
2023/05/04 01:54:22;;;;;;;6.72;6.10;;;7.40;99.90;;;;;;5054035;28;20519;-72
2023/05/04 01:56:48;;;;;;;7.38;6.68;;;7.40;99.90;;;;;;5071865;28;20674;-73
2023/05/04 01:59:14;;;;;;;7.43;6.68;;;7.40;99.90;;;;;;5048504;28;20188;-72
2023/05/04 02:01:40;;;;;;;7.30;6.70;;;7.30;99.90;;;;;;5055649;28;20176;-72
2023/05/04 02:04:06;;;;;;;7.65;6.85;;;7.20;99.90;;;;;;5051620;28;20267;-72
2023/05/04 02:06:31;;;;;;;7.60;6.82;;;7.10;99.90;;;;;;5056769;28;20562;-73
2023/05/04 02:08:57;;;;;;;8.30;7.13;;;7.00;99.90;;;;;;5052446;28;20218;-73
2023/05/04 02:11:23;;;;;;;10.20;6.38;;;7.00;99.90;;;;;;5056231;28;20215;-72
2023/05/04 02:13:48;;;;;;;8.10;6.68;;;7.10;99.90;;;;;;5050796;28;20203;-72
2023/05/04 02:16:14;;;;;;;7.22;6.50;;;7.10;99.90;;;;;;5051138;28;20180;-73
2023/05/04 02:18:39;;;;;;;6.75;6.18;;;7.10;99.90;;;;;;5049818;28;20643;-73
2023/05/04 02:21:05;;;;;;;9.13;6.82;;;7.20;99.90;;;;;;5056204;28;20577;-74
2023/05/04 02:23:31;;;;;;;6.45;5.95;;;7.20;99.90;;;;;;5053406;28;20187;-73
2023/05/04 02:25:56;;;;;;;6.97;6.38;;;7.20;99.90;;;;;;5051563;28;20654;-73
2023/05/04 02:28:22;;;;;;;7.03;6.40;;;7.10;99.90;;;;;;5051521;28;20207;-73
2023/05/04 02:30:47;;;;;;;7.38;6.47;;;7.00;99.90;;;;;;5041229;28;20171;-73
2023/05/04 02:33:13;;;;;;;8.98;6.88;;;7.00;99.90;;;;;;5052577;28;20645;-70
2023/05/04 02:35:38;;;;;;;7.05;6.40;;;6.90;99.90;;;;;;5047990;28;20257;-73
2023/05/04 02:38:04;;;;;;;6.97;6.28;;;6.90;99.90;;;;;;5051959;28;20575;-73
2023/05/04 02:40:30;;;;;;;7.30;6.60;;;6.90;99.90;;;;;;5050728;28;20207;-73
2023/05/04 02:42:55;;;;;;;7.10;6.50;;;6.90;99.90;;;;;;5047852;28;20274;-73
2023/05/04 02:45:21;;;;;;;8.80;6.70;;;6.90;99.90;;;;;;5052844;28;20196;-73
2023/05/04 02:47:47;;;;;;;7.68;6.93;;;6.80;99.90;;;;;;5051281;28;20691;-73
2023/05/04 02:50:12;;;;;;;9.13;6.43;;;6.80;99.90;;;;;;5048220;28;20180;-73
2023/05/04 02:52:38;;;;;;;8.32;7.00;;;6.70;99.90;;;;;;5052317;28;20176;-73
2023/05/04 02:55:04;;;;;;;7.18;6.47;;;6.80;99.90;;;;;;5046196;28;20659;-73
2023/05/04 02:57:30;;;;;;;8.15;6.50;;;6.80;99.90;;;;;;5050149;28;20730;-72
2023/05/04 02:59:55;;;;;;;7.20;6.30;;;6.70;99.90;;;;;;5051187;28;20267;-73
2023/05/04 03:02:21;;;;;;;7.03;6.25;;;6.60;99.90;;;;;;5050730;28;20609;-73
2023/05/04 03:04:47;;;;;;;7.95;7.15;;;6.50;99.90;;;;;;5051509;28;20185;-73
2023/05/04 03:07:12;;;;;;;7.50;6.80;;;6.50;99.90;;;;;;5053322;28;20287;-73
2023/05/04 03:09:38;;;;;;;12.48;6.50;;;6.50;99.90;;;;;;5051940;28;20234;-72
2023/05/04 03:12:04;;;;;;;7.70;6.88;;;6.50;99.90;;;;;;5049415;28;20230;-73
2023/05/04 03:14:30;;;;;;;7.90;7.15;;;6.40;99.90;;;;;;5050488;28;20205;-72
2023/05/04 03:16:56;;;;;;;8.27;7.43;;;6.40;99.90;;;;;;5047012;28;20598;-73
2023/05/04 03:19:22;;;;;;;7.53;6.82;;;6.30;99.90;;;;;;5048567;28;20202;-73
2023/05/04 03:21:48;;;;;;;7.75;6.95;;;6.40;99.90;;;;;;5051765;28;20324;-73
2023/05/04 03:24:15;;;;;;;7.15;6.45;;;6.40;99.90;;;;;;5049734;28;20186;-73
2023/05/04 03:26:41;;;;;;;7.95;6.20;;;6.40;99.90;;;;;;5044188;28;20207;-73
2023/05/04 03:29:07;;;;;;;9.93;6.78;;;6.40;99.90;;;;;;5047655;28;20264;-72
2023/05/04 03:31:32;;;;;;;10.73;7.47;;;6.40;99.90;;;;;;5053061;28;20270;-73
2023/05/04 03:33:58;;;;;;;7.57;6.88;;;6.30;99.90;;;;;;5049923;28;20804;-73
2023/05/04 03:36:23;;;;;;;7.32;6.63;;;6.30;99.90;;;;;;5053626;28;20602;-73
2023/05/04 03:38:50;;;;;;;10.88;7.88;;;6.10;99.90;;;;;;5051740;28;20180;-73
2023/05/04 03:41:15;;;;;;;8.45;7.18;;;6.10;99.90;;;;;;5053503;28;20184;-73
2023/05/04 03:43:41;;;;;;;8.10;7.32;;;6.10;99.90;;;;;;5050681;28;20275;-71
2023/05/04 03:46:07;;;;;;;7.63;6.93;;;6.10;99.90;;;;;;5047894;28;20562;-71
2023/05/04 03:48:32;;;;;;;8.00;7.15;;;6.00;99.90;;;;;;5041349;28;20208;-73
2023/05/04 03:50:58;;;;;;;8.15;7.35;;;6.00;99.90;;;;;;5046076;28;20336;-72
2023/05/04 03:53:24;;;;;;;9.43;7.60;;;6.00;99.90;;;;;;5052039;28;20187;-72
2023/05/04 03:55:50;;;;;;;8.65;7.45;;;5.90;99.90;;;;;;5046373;28;20668;-72
2023/05/04 03:58:15;;;;;;;8.13;7.32;;;6.00;99.90;;;;;;5048201;28;20197;-71
2023/05/04 04:00:41;;;;;;;8.40;7.28;;;6.00;99.90;;;;;;5050541;28;20180;-73
2023/05/04 04:03:07;;;;;;;10.07;7.40;;;6.00;99.90;;;;;;5046987;28;20575;-71
2023/05/04 04:05:32;;;;;;;8.73;7.35;;;6.00;99.90;;;;;;5049370;28;20646;-72
2023/05/04 04:07:58;;;;;;;8.35;7.05;;;6.10;99.90;;;;;;5047554;28;20281;-72
2023/05/04 04:10:24;;;;;;;8.00;7.18;;;6.20;99.90;;;;;;5048450;28;20677;-73
2023/05/04 04:12:49;;;;;;;8.07;7.28;;;6.10;99.90;;;;;;5045778;28;20512;-73
2023/05/04 04:15:15;;;;;;;10.40;7.90;;;6.10;99.90;;;;;;5050115;28;20176;-73
2023/05/04 04:17:40;;;;;;;9.45;7.45;;;6.10;99.90;;;;;;5047877;28;20290;-73
2023/05/04 04:20:07;;;;;;;8.55;7.30;;;6.10;99.90;;;;;;5049356;28;20179;-73
2023/05/04 04:22:34;;;;;;;8.27;7.47;;;6.10;99.90;;;;;;5044537;28;20564;-73
2023/05/04 04:25:00;;;;;;;8.75;7.25;;;6.10;99.90;;;;;;5051349;28;20180;-70
2023/05/04 04:27:25;;;;;;;10.27;8.75;;;6.10;99.90;;;;;;5047037;28;22335;-73
2023/05/04 04:29:51;;;;;;;9.02;6.93;;;6.20;99.90;;;;;;5050219;28;20271;-73
2023/05/04 04:32:16;;;;;;;9.00;7.95;;;6.30;99.90;;;;;;5051203;28;20184;-73
2023/05/04 04:34:42;;;;;;;8.52;7.63;;;6.30;99.90;;;;;;5048396;28;20690;-74
2023/05/04 04:37:07;;;;;;;8.75;7.53;;;6.40;99.90;;;;;;5045537;28;20210;-73
2023/05/04 04:39:33;;;;;;;9.40;7.95;;;6.50;99.90;;;;;;5049525;28;20286;-74
2023/05/04 04:41:58;;;;;;;8.95;6.80;;;6.70;99.90;;;;;;5049946;28;20222;-73
2023/05/04 04:44:24;;;;;;;8.75;7.13;;;6.70;99.90;;;;;;5054738;28;20186;-73
2023/05/04 04:46:50;;;;;;;11.23;8.10;;;6.80;99.90;;;;;;5048707;28;20203;-73
2023/05/04 04:49:16;;;;;;;8.70;7.90;;;6.90;99.90;;;;;;5042426;28;20291;-73
2023/05/04 04:51:42;;;;;;;9.05;7.28;;;7.00;99.90;;;;;;5051610;28;20179;-74
2023/05/04 04:54:08;;;;;;;8.55;7.22;;;7.10;99.90;;;;;;5047130;28;20180;-74
2023/05/04 04:56:35;;;;;;;9.20;7.45;;;7.20;99.90;;;;;;5049707;28;20198;-74
2023/05/04 04:59:00;;;;;;;7.70;7.00;;;7.30;99.90;;;;;;5050870;28;20179;-74
2023/05/04 05:01:26;;;;;;;9.75;7.43;;;7.40;99.90;;;;;;5043380;28;20538;-75
2023/05/04 05:03:51;;;;;;;7.68;6.97;;;7.40;99.90;;;;;;5050235;28;20180;-76
2023/05/04 05:06:17;;;;;;;9.15;7.72;;;7.40;99.90;;;;;;5044885;28;20203;-76
2023/05/04 05:08:44;;;;;;;8.73;7.38;;;7.50;99.90;;;;;;5054941;28;20575;-75
2023/05/04 05:11:10;;;;;;;8.30;7.25;;;7.70;99.90;;;;;;5046908;28;20176;-76
2023/05/04 05:13:35;;;;;;;8.52;7.72;;;7.70;99.90;;;;;;5055433;28;20172;-77
2023/05/04 05:16:01;;;;;;;7.97;7.18;;;7.80;99.90;;;;;;5050451;28;20225;-76
2023/05/04 05:18:28;;;;;;;8.27;7.28;;;7.80;99.90;;;;;;5052686;28;20207;-75
2023/05/04 05:20:54;;;;;;;10.10;6.90;;;7.90;99.90;;;;;;5054297;28;20285;-74
2023/05/04 05:23:19;;;;;;;9.65;6.97;;;8.00;99.90;;;;;;5055175;28;20184;-73
2023/05/04 05:25:45;;;;;;;8.60;7.55;;;8.00;99.90;;;;;;5054041;28;20228;-72
2023/05/04 05:28:12;;;;;;;9.20;8.30;;;8.10;99.90;;;;;;5052988;28;20214;-71
2023/05/04 05:30:38;;;;;;;9.40;6.93;;;8.20;99.90;;;;;;5052136;28;20188;-72
2023/05/04 05:33:04;;;;;;;7.65;6.93;;;8.30;99.90;;;;;;5056083;28;20191;-72
2023/05/04 05:35:30;;;;;;;8.13;7.32;;;8.50;99.90;;;;;;5053649;28;20204;-71
2023/05/04 05:37:56;;;;;;;8.75;6.75;;;8.60;99.90;;;;;;5056497;28;20281;-72
2023/05/04 05:40:22;;;;;;;8.18;7.38;;;8.60;99.90;;;;;;5053484;28;20184;-75
2023/05/04 05:42:48;;;;;;;7.95;7.13;;;8.70;99.90;;;;;;5054038;28;20258;-71
2023/05/04 05:45:13;;;;;;;8.60;6.70;;;8.80;99.90;;;;;;5053858;28;20180;-72
2023/05/04 05:47:39;;;;;;;8.45;6.85;;;8.90;99.90;;;;;;5052316;28;20313;-73
2023/05/04 05:50:05;;;;;;;7.85;7.05;;;9.00;99.90;;;;;;5047529;28;20312;-74
2023/05/04 05:52:31;;;;;;;7.53;6.63;;;9.10;99.90;;;;;;5049968;28;20188;-75
2023/05/04 05:54:57;;;;;;;7.85;7.10;;;9.20;99.90;;;;;;5053415;28;20688;-76
2023/05/04 05:57:22;;;;;;;9.38;6.97;;;9.20;99.90;;;;;;5051094;28;20212;-76
2023/05/04 05:59:48;;;;;;;8.85;7.63;;;9.30;99.90;;;;;;5054422;28;20180;-75
2023/05/04 06:02:13;;;;;;;9.18;7.53;;;9.40;99.90;;;;;;5054469;28;20216;-74
2023/05/04 06:04:40;;;;;;;7.80;7.03;;;9.50;99.90;;;;;;5054229;28;20995;-73
2023/05/04 06:07:06;;;;;;;7.15;6.43;;;9.70;99.90;;;;;;5048849;28;20622;-75
2023/05/04 06:09:32;;;;;;;7.72;6.65;;;9.90;99.90;;;;;;5046489;28;20176;-74
2023/05/04 06:11:58;;;;;;;9.68;7.30;;;10.00;99.90;;;;;;5049211;28;20262;-74
2023/05/04 06:14:24;;;;;;;7.85;7.15;;;10.20;99.90;;;;;;5052182;28;20702;-73
2023/05/04 06:16:49;;;;;;;7.93;7.22;;;10.30;99.90;;;;;;5046845;28;20412;-73
2023/05/04 06:19:15;;;;;;;7.00;6.40;;;10.40;99.90;;;;;;5048634;28;20183;-73
2023/05/04 06:21:40;;;;;;;8.52;6.10;;;10.50;99.90;;;;;;5050767;28;20195;-73
2023/05/04 06:24:06;;;;;;;9.40;6.90;;;10.60;99.90;;;;;;5046226;28;20194;-73
2023/05/04 06:26:32;;;;;;;7.28;6.65;;;10.80;99.90;;;;;;5051898;28;20208;-76
2023/05/04 06:28:57;;;;;;;8.07;6.35;;;11.00;99.90;;;;;;5049832;28;20200;-73
2023/05/04 06:31:23;;;;;;;7.90;6.15;;;11.00;99.90;;;;;;5048074;28;20184;-74
2023/05/04 06:33:49;;;;;;;9.02;7.15;;;11.10;99.90;;;;;;5054290;28;20554;-74
2023/05/04 06:36:15;;;;;;;6.25;5.65;;;11.30;99.90;;;;;;5052082;28;20262;-74
2023/05/04 06:38:41;;;;;;;6.93;6.32;;;11.40;99.90;;;;;;5054860;28;20195;-74
2023/05/04 06:41:07;;;;;;;11.35;6.60;;;11.60;99.90;;;;;;5053457;28;20177;-77
2023/05/04 06:43:32;;;;;;;7.70;6.00;;;11.70;99.90;;;;;;5054287;28;20183;-74
2023/05/04 06:46:04;;;;;;;8.00;6.85;;;11.80;99.90;;;;;;5043888;28;20270;-74
2023/05/04 06:48:31;;;;;;;7.60;6.70;;;11.90;99.90;;;;;;5050265;28;20207;-76
2023/05/04 06:50:56;;;;;;;8.18;6.47;;;12.00;99.90;;;;;;5052730;28;20167;-73
2023/05/04 06:53:22;;;;;;;10.73;6.90;;;12.10;99.90;;;;;;5045983;28;20169;-74
2023/05/04 06:55:48;;;;;;;7.70;6.75;;;12.30;99.90;;;;;;5055820;28;20208;-73
2023/05/04 06:58:16;;;;;;;8.75;7.72;;;12.40;99.90;;;;;;5049701;28;20217;-73
2023/05/04 07:00:42;;;;;;;10.10;7.20;;;12.60;99.90;;;;;;5050215;28;20658;-73
2023/05/04 07:03:08;;;;;;;8.82;7.07;;;12.70;99.90;;;;;;5048791;28;20279;-72
2023/05/04 07:05:36;;;;;;;7.03;6.35;;;12.80;99.90;;;;;;5052355;28;20188;-74
2023/05/04 07:08:02;;;;;;;11.32;6.95;;;12.90;99.90;;;;;;5048162;28;20237;-74
2023/05/04 07:10:28;;;;;;;9.85;6.95;;;13.10;99.90;;;;;;5048051;28;20270;-74
2023/05/04 07:12:54;;;;;;;8.68;6.45;;;13.20;99.90;;;;;;5069606;28;20183;-76
2023/05/04 07:15:20;;;;;;;7.90;6.57;;;13.30;99.90;;;;;;5054116;28;20184;-76
2023/05/04 07:17:47;;;;;;;5.88;5.38;;;13.50;99.90;;;;;;5059451;28;20988;-79
2023/05/04 07:22:59;;;;;;;7.55;5.90;;;13.70;99.90;;;;;;5027418;28;20231;-75
2023/05/04 07:25:26;;;;;;;9.77;6.45;;;13.80;99.90;;;;;;5054965;28;20591;-75
2023/05/04 07:27:52;;;;;;;6.78;6.05;;;13.80;99.90;;;;;;5066868;28;20817;-74
2023/05/04 07:30:19;;;;;;;10.65;6.75;;;13.90;99.90;;;;;;5060842;28;20553;-74
2023/05/04 07:32:46;;;;;;;12.82;6.72;;;14.10;99.90;;;;;;5053310;28;20553;-74
2023/05/04 07:35:12;;;;;;;6.32;5.70;;;14.20;99.90;;;;;;5053307;28;20202;-73
2023/05/04 07:37:37;;;;;;;6.70;6.05;;;14.40;99.90;;;;;;5051229;28;20574;-76
2023/05/04 07:40:06;;;;;;;7.07;5.90;;;14.50;99.90;;;;;;5050121;28;20180;-76
2023/05/04 07:42:32;;;;;;;6.25;5.72;;;14.60;99.90;;;;;;5051661;28;20218;-74
2023/05/04 07:44:57;;;;;;;7.45;5.78;;;14.60;99.90;;;;;;5050431;28;20192;-75
2023/05/04 07:47:23;;;;;;;7.55;5.55;;;14.60;99.90;;;;;;5049681;28;20293;-75
2023/05/04 07:49:49;;;;;;;6.40;5.45;;;14.70;99.90;;;;;;5051623;28;20647;-75
2023/05/04 07:52:14;;;;;;;9.25;5.35;;;14.80;99.90;;;;;;5048597;28;20190;-75
2023/05/04 07:54:40;;;;;;;6.68;5.93;;;14.80;99.90;;;;;;5051272;28;20195;-74
2023/05/04 07:57:06;;;;;;;7.18;6.07;;;14.80;99.90;;;;;;5051556;28;20636;-74
2023/05/04 07:59:32;;;;;;;7.68;5.35;;;14.90;99.90;;;;;;5049506;28;20672;-73
2023/05/04 08:01:57;;;;;;;5.95;5.35;;;15.00;99.90;;;;;;5057285;28;20179;-73
2023/05/04 08:04:23;;;;;;;5.78;5.35;;;15.10;99.90;;;;;;5050233;28;20310;-73
2023/05/04 08:06:49;;;;;;;6.05;5.38;;;15.10;99.90;;;;;;5051016;28;20203;-74
2023/05/04 08:09:15;;;;;;;7.38;5.97;;;15.10;99.90;;;;;;5052197;28;20200;-73
2023/05/04 08:11:41;;;;;;;8.88;6.03;;;15.10;99.90;;;;;;5050411;28;20202;-76
2023/05/04 08:14:07;;;;;;;6.80;5.15;;;15.10;99.90;;;;;;5049991;28;20176;-75
2023/05/04 08:16:33;;;;;;;8.77;6.68;;;15.20;99.90;;;;;;5050987;28;20203;-73
2023/05/04 08:19:00;;;;;;;8.40;5.50;;;15.20;99.90;;;;;;5049584;28;20188;-75
2023/05/04 08:21:26;;;;;;;6.38;5.78;;;15.20;99.90;;;;;;5048923;28;20235;-75
2023/05/04 08:23:51;;;;;;;10.55;6.10;;;15.30;99.90;;;;;;5051459;28;20191;-75
2023/05/04 08:26:18;;;;;;;7.57;5.85;;;15.40;99.90;;;;;;5057443;28;20175;-75
2023/05/04 08:28:45;;;;;;;6.15;5.32;;;15.60;99.60;;;;;;5050040;28;20639;-75
2023/05/04 08:31:11;;;;;;;6.50;5.15;;;15.60;99.90;;;;;;5051243;28;20229;-75
2023/05/04 08:33:37;;;;;;;6.25;5.35;;;15.80;99.90;;;;;;5053596;28;20176;-75
2023/05/04 08:36:04;;;;;;;6.93;5.70;;;15.90;99.10;;;;;;5051936;28;20187;-75
2023/05/04 08:38:29;;;;;;;7.95;5.47;;;16.00;99.20;;;;;;5047515;28;20233;-75
2023/05/04 08:40:55;;;;;;;12.32;5.72;;;16.00;97.20;;;;;;5049610;28;20583;-75
2023/05/04 08:43:21;;;;;;;6.68;5.28;;;16.10;98.40;;;;;;5051298;28;20210;-75
2023/05/04 08:45:48;;;;;;;6.82;5.88;;;16.20;99.30;;;;;;5051409;28;20219;-73
2023/05/04 08:48:14;;;;;;;7.05;5.38;;;16.40;99.00;;;;;;5052582;28;20644;-75
2023/05/04 08:50:39;;;;;;;6.38;5.82;;;16.60;98.80;;;;;;5055710;28;20214;-76
2023/05/04 08:53:10;;;;;;;6.47;5.78;;;16.70;96.30;;;;;;5052474;28;20634;-74
2023/05/04 08:55:36;;;;;;;6.03;5.50;;;16.80;96.70;;;;;;5048545;28;20632;-74
2023/05/04 08:58:06;;;;;;;5.88;5.07;;;16.90;95.00;;;;;;5053771;28;20199;-75
2023/05/04 09:00:32;;;;;;;8.05;5.38;;;17.00;95.80;;;;;;5054829;28;20553;-76
2023/05/04 09:02:59;;;;;;;6.13;5.57;;;17.10;95.70;;;;;;5051890;28;20175;-77
2023/05/04 09:05:27;;;;;;;5.95;4.72;;;17.20;95.70;;;;;;5056197;28;20175;-76
2023/05/04 09:07:52;;;;;;;4.65;3.83;;;17.30;93.90;;;;;;5054845;28;20243;-77
2023/05/04 09:10:19;;;;;;;5.22;4.80;;;17.40;93.40;;;;;;5056447;28;20196;-77
2023/05/04 09:12:45;;;;;;;5.75;5.20;;;17.60;93.40;;;;;;5056033;28;20804;-76
2023/05/04 09:15:18;;;;;;;4.63;4.15;;;17.90;92.10;;;;;;5049003;28;20187;-82
2023/05/04 09:17:58;;;;;;;7.28;4.97;;;18.10;92.40;;;;;;5069041;28;20204;-77
2023/05/04 09:20:24;;;;;;;4.40;3.75;;;18.70;88.40;;;;;;5050555;28;20187;-77
2023/05/04 09:23:07;;;;;;;4.32;3.83;;;19.50;82.40;;;;;;5054660;28;20196;-76
2023/05/04 09:25:45;;;;;;;5.00;4.25;;;20.60;77.40;;;;;;5055983;28;20214;-74
2023/05/04 09:28:10;;;;;;;4.18;3.80;;;21.20;73.40;;;;;;5045706;28;20208;-75
2023/05/04 09:30:36;;;;;;;5.85;3.72;;;22.00;72.50;;;;;;5046596;28;20682;-75
2023/05/04 09:33:02;;;;;;;3.63;3.13;;;23.10;70.00;;;;;;5049851;28;20674;-76
2023/05/04 09:35:28;;;;;;;5.32;3.60;;;24.30;66.70;;;;;;5052574;28;20216;-75
2023/05/04 09:37:55;;;;;;;5.72;3.45;;;25.30;61.40;;;;;;5054665;28;20211;-76
2023/05/04 09:40:29;;;;;;;3.50;3.05;;;26.10;57.20;;;;;;5047613;28;20176;-77
2023/05/04 09:42:56;;;;;;;3.60;3.30;;;26.70;56.40;;;;;;5050052;28;20634;-74
2023/05/04 09:45:21;;;;;;;3.58;3.22;;;27.00;53.90;;;;;;5051552;28;20192;-72
2023/05/04 09:47:47;;;;;;;3.90;3.45;;;27.30;53.30;;;;;;5050759;28;20611;-72
2023/05/04 09:50:25;;;;;;;5.57;4.05;;;27.60;52.40;;;;;;5050381;28;20183;-73
2023/05/04 09:52:52;;;;;;;3.53;3.25;;;28.10;50.80;;;;;;5048601;28;20179;-72
2023/05/04 09:55:19;;;;;;;4.03;3.28;;;27.80;49.50;;;;;;5050195;28;20176;-73
2023/05/04 09:57:46;;;;;;;4.40;3.30;;;27.90;50.20;;;;;;5050249;28;20230;-74
2023/05/04 10:00:15;;;;;;;3.85;3.42;;;28.30;49.90;;;;;;5057273;28;20186;-74
2023/05/04 10:02:42;;;;;;;4.95;3.65;;;28.80;47.50;;;;;;5048472;28;20188;-74
2023/05/04 10:05:09;;;;;;;3.40;3.10;;;29.00;46.50;;;;;;5060967;28;20255;-73
2023/05/04 10:07:35;;;;;;;4.05;3.42;;;29.10;48.30;;;;;;5051926;28;20550;-71
2023/05/04 10:10:02;;;;;;;3.92;3.30;;;29.30;48.10;;;;;;5050780;28;20180;-74
2023/05/04 10:12:28;;;;;;;4.13;3.13;;;29.90;45.70;;;;;;5054930;28;20651;-71
2023/05/04 10:14:53;;;;;;;4.22;3.00;;;30.40;46.10;;;;;;5054053;28;20187;-71
2023/05/04 10:17:34;;;;;;;3.60;3.30;;;30.70;44.80;;;;;;5054525;28;20701;-73
2023/05/04 10:20:24;;;;;;;3.78;3.47;;;31.00;44.40;;;;;;5048881;28;20217;-70
2023/05/04 10:23:27;;;;;;;3.92;3.60;;;31.00;43.10;;;;;;5052672;28;20391;-72
2023/05/04 10:26:13;;;;;;;5.95;3.67;;;31.00;43.80;;;;;;5052162;28;20719;-71
2023/05/04 10:28:38;;;;;;;4.05;3.42;;;31.10;43.20;;;;;;5051850;28;20207;-69
2023/05/04 10:31:07;;;;;;;3.58;3.28;;;31.50;43.40;;;;;;5057319;28;20185;-69
2023/05/04 10:33:42;;;;;;;4.55;3.30;;;31.80;43.00;;;;;;5051178;28;20183;-71
2023/05/04 10:36:09;;;;;;;3.58;3.28;;;32.30;41.50;;;;;;5052523;28;20183;-71
2023/05/04 10:38:36;;;;;;;5.55;3.72;;;32.60;41.50;;;;;;5051092;28;20249;-71
2023/05/04 10:41:18;;;;;;;3.25;3.05;;;33.00;40.10;;;;;;5049515;28;20195;-71
2023/05/04 10:43:52;;;;;;;4.18;3.47;;;33.20;40.90;;;;;;5049590;28;20174;-69
2023/05/04 10:46:19;;;;;;;4.00;3.58;;;33.20;40.30;;;;;;5049244;28;20182;-71
2023/05/04 10:48:44;;;;;;;3.72;3.40;;;33.20;40.00;;;;;;5062585;28;20210;-72
2023/05/04 10:51:21;;;;;;;2.80;2.60;;;33.30;39.10;;;;;;5045836;28;20274;-71
2023/05/04 10:53:46;;;;;;;3.63;2.78;;;33.60;38.90;;;;;;5047309;28;20183;-71
2023/05/04 10:56:22;;;;;;;4.88;2.88;;;34.00;38.10;;;;;;5051806;28;20246;-70
2023/05/04 10:58:48;;;;;;;6.38;2.95;;;34.20;37.30;;;;;;5052418;28;20182;-70
2023/05/04 11:01:14;;;;;;;2.67;2.30;;;34.30;37.40;;;;;;5044675;28;20646;-71
2023/05/04 11:03:40;;;;;;;4.60;2.92;;;34.70;37.90;;;;;;5049317;28;20237;-71
2023/05/04 11:06:21;;;;;;;3.17;2.97;;;34.90;37.20;;;;;;5051255;28;20187;-71
2023/05/04 11:08:50;;;;;;;3.05;2.85;;;34.90;36.90;;;;;;5050491;28;20562;-72
2023/05/04 11:11:16;;;;;;;3.33;3.03;;;35.10;37.00;;;;;;5048980;28;20176;-71
2023/05/04 11:13:46;;;;;;;3.08;2.80;;;35.30;37.10;;;;;;5047994;28;20233;-71
2023/05/04 11:16:13;;;;;;;4.82;3.30;;;35.60;36.50;;;;;;5052515;28;20180;-71
2023/05/04 11:18:40;;;;;;;3.38;2.92;;;35.60;36.20;;;;;;5049383;28;20198;-70
2023/05/04 11:21:07;;;;;;;3.42;3.00;;;35.60;36.50;;;;;;5050498;28;20188;-71
2023/05/04 11:23:33;;;;;;;3.75;3.33;;;35.70;36.20;;;;;;5050791;28;20179;-71
2023/05/04 11:26:05;;;;;;;4.25;3.53;;;35.30;34.80;;;;;;5048339;28;20233;-70
2023/05/04 11:28:32;;;;;;;3.53;3.20;;;33.80;36.70;;;;;;5050830;28;20213;-70
2023/05/04 11:30:58;;;;;;;3.75;3.03;;;33.50;38.70;;;;;;5050778;28;20183;-70
2023/05/04 11:33:23;;;;;;;5.68;3.00;;;33.30;37.40;;;;;;5049833;28;20175;-70
2023/05/04 11:35:49;;;;;;;3.33;3.03;;;33.90;36.90;;;;;;5049977;28;20198;-70
2023/05/04 11:38:21;;;;;;;2.67;2.53;;;34.10;36.70;;;;;;5051999;28;20207;-70
2023/05/04 11:40:47;;;;;;;2.90;2.60;;;34.50;36.90;;;;;;5050884;28;20254;-70
2023/05/04 11:43:13;;;;;;;3.20;2.90;;;34.80;35.90;;;;;;5046680;28;20856;-71
2023/05/04 11:45:39;;;;;;;4.60;3.13;;;34.50;35.90;;;;;;5050752;28;20454;-71
2023/05/04 11:48:07;;;;;;;2.95;2.35;;;34.60;34.50;;;;;;5050411;28;20210;-70
2023/05/04 11:50:33;;;;;;;2.83;2.55;;;34.60;34.90;;;;;;5051833;28;20178;-70
2023/05/04 11:53:07;;;;;;;2.97;2.20;;;34.80;34.40;;;;;;5046252;28;20258;-70
2023/05/04 11:55:34;;;;;;;4.95;2.22;;;34.70;35.30;;;;;;5048372;28;20228;-70
2023/05/04 11:58:08;;;;;;;2.80;2.60;;;34.80;34.10;;;;;;5047145;28;20195;-70
2023/05/04 12:00:40;;;;;;;2.58;2.38;;;34.50;33.10;;;;;;5047931;28;20197;-71
2023/05/04 12:03:14;;;;;;;3.55;2.35;;;34.30;33.60;;;;;;5046283;28;20202;-71
2023/05/04 12:05:51;;;;;;;2.58;2.10;;;34.50;33.00;;;;;;5046365;28;20237;-71
2023/05/04 12:08:24;;;;;;;2.50;2.30;;;33.90;33.70;;;;;;5062868;28;20574;-71
2023/05/04 12:10:51;;;;;;;2.03;1.90;;;33.30;32.60;;;;;;5047424;28;20269;-71
2023/05/04 12:13:17;;;;;;;3.03;1.60;;;33.60;32.70;;;;;;5049484;28;20554;-71
2023/05/04 12:15:43;;;;;;;2.08;1.85;;;33.60;31.20;;;;;;5050097;28;20185;-71
2023/05/04 12:18:21;;;;;;;4.00;2.20;;;33.50;32.30;;;;;;5050520;28;20198;-71
2023/05/04 12:20:47;;;;;;;2.30;2.13;;;33.60;32.00;;;;;;5048686;28;20222;-71
2023/05/04 12:23:12;;;;;;;2.97;2.05;;;33.90;33.00;;;;;;5046677;28;20274;-71
2023/05/04 12:25:38;;;;;;;2.63;2.22;;;33.90;32.00;;;;;;5049168;28;20809;-71
2023/05/04 12:28:03;;;;;;;1.95;1.85;;;33.90;31.90;;;;;;5063455;28;20203;-71
2023/05/04 12:30:29;;;;;;;1.77;1.70;;;34.40;31.60;;;;;;5046884;28;20213;-71
2023/05/04 12:32:55;;;;;;;3.80;2.17;;;34.70;30.50;;;;;;5048929;28;20634;-71
2023/05/04 12:35:20;;;;;;;2.10;1.70;;;35.10;30.60;;;;;;5048657;28;20181;-72
2023/05/04 12:37:46;;;;;;;1.50;1.50;;;35.50;29.20;;;;;;5045502;28;20257;-71
2023/05/04 12:40:12;;;;;;;3.17;2.20;;;35.00;29.60;;;;;;5043341;28;20179;-71
2023/05/04 12:42:41;;;;;;;2.00;1.90;;;34.80;30.70;;;;;;5045312;28;20218;-71
2023/05/04 12:45:07;;;;;;;1.90;1.80;;;34.70;31.00;;;;;;5049737;28;20179;-71
2023/05/04 12:47:32;;;;;;;2.35;2.25;;;35.10;30.10;;;;;;5048873;28;20231;-71
2023/05/04 12:49:58;;;;;;;2.00;1.90;;;34.90;30.30;;;;;;5044773;28;20579;-71
2023/05/04 12:52:23;;;;;;;1.73;1.63;;;35.30;29.30;;;;;;5046627;28;20179;-72